Time;durP1;ratioP1;P1;durP2;ratioP2;P2;SDS_P1;SDS_P2;PMS_P1;PMS_P2;Temp;Humidity;BMP_temperature;BMP_pressure;BME280_temperature;BME280_humidity;BME280_pressure;Samples;Min_cycle;Max_cycle;Signal;HPM_P1;HPM_P2
2022/02/14 00:02:04;;;;;;;9.93;3.85;;;;;;;6.13;100.00;100250.81;10163625;28;20074;-66
2022/02/14 00:07:00;;;;;;;11.75;4.53;;;;;;;6.08;100.00;100247.09;10202676;28;20081;-65
2022/02/14 00:11:57;;;;;;;14.23;4.00;;;;;;;6.06;100.00;100237.66;10181012;28;20078;-67
2022/02/14 00:16:54;;;;;;;8.10;3.75;;;;;;;6.07;100.00;100228.41;10173719;28;20074;-67
2022/02/14 00:21:51;;;;;;;13.32;4.13;;;;;;;6.04;100.00;100218.94;10164617;28;20054;-68
2022/02/14 00:26:50;;;;;;;12.95;4.85;;;;;;;6.01;100.00;100219.56;10175965;28;20046;-68
2022/02/14 00:31:47;;;;;;;10.30;4.15;;;;;;;6.01;100.00;100214.13;10187494;28;20068;-64
2022/02/14 00:36:44;;;;;;;12.38;3.28;;;;;;;5.99;100.00;100210.91;10192874;28;20104;-65
2022/02/14 00:41:40;;;;;;;11.88;4.05;;;;;;;6.01;100.00;100197.84;10165378;28;20077;-64
2022/02/14 00:46:36;;;;;;;12.60;4.20;;;;;;;6.00;100.00;100196.22;10173960;28;20144;-67
2022/02/14 00:51:33;;;;;;;7.43;3.78;;;;;;;6.02;100.00;100188.59;10203350;28;20116;-66
2022/02/14 00:56:29;;;;;;;11.15;4.00;;;;;;;6.03;100.00;100179.31;10190253;28;20160;-67
2022/02/14 01:01:29;;;;;;;10.25;4.18;;;;;;;6.07;100.00;100174.91;10192224;28;20548;-66
2022/02/14 01:06:26;;;;;;;10.38;3.95;;;;;;;6.09;100.00;100161.84;10195614;28;20137;-66
2022/02/14 01:11:23;;;;;;;11.82;4.03;;;;;;;6.13;100.00;100156.63;10177333;28;20070;-63
2022/02/14 01:16:19;;;;;;;8.80;3.50;;;;;;;6.16;100.00;100157.94;10190766;28;20069;-63
2022/02/14 01:21:16;;;;;;;13.82;4.18;;;;;;;6.16;100.00;100147.06;10161788;28;20045;-67
2022/02/14 01:26:12;;;;;;;11.55;3.90;;;;;;;6.18;100.00;100132.09;10205831;28;20419;-65
2022/02/14 01:31:09;;;;;;;9.75;3.53;;;;;;;6.20;100.00;100123.66;10186062;28;20074;-66
2022/02/14 01:36:06;;;;;;;8.20;3.30;;;;;;;6.21;100.00;100119.81;10194672;28;20053;-65
2022/02/14 01:41:02;;;;;;;7.05;3.20;;;;;;;6.23;100.00;100114.91;10159293;28;20401;-65
2022/02/14 01:45:59;;;;;;;9.50;3.30;;;;;;;6.27;100.00;100115.91;10175864;28;20045;-66
2022/02/14 01:50:55;;;;;;;10.30;3.33;;;;;;;6.27;100.00;100114.00;10159410;28;20042;-63
2022/02/14 01:55:52;;;;;;;7.25;3.42;;;;;;;6.27;100.00;100107.75;10186416;28;20076;-63
2022/02/14 02:00:49;;;;;;;10.20;3.70;;;;;;;6.24;100.00;100102.91;10180164;28;20065;-63
2022/02/14 02:05:46;;;;;;;8.88;3.65;;;;;;;6.24;100.00;100090.16;11282718;23;20029;-71
2022/02/14 02:10:42;;;;;;;11.13;3.10;;;;;;;6.29;100.00;100090.06;10178613;28;20046;-74
2022/02/14 02:15:39;;;;;;;8.65;3.10;;;;;;;6.26;100.00;100073.56;10178908;28;20046;-72
2022/02/14 02:20:35;;;;;;;9.57;3.28;;;;;;;6.21;100.00;100073.69;10187699;28;20104;-72
2022/02/14 02:25:32;;;;;;;10.40;3.58;;;;;;;6.19;100.00;100059.59;10185782;28;20580;-74
2022/02/14 02:30:29;;;;;;;8.32;3.30;;;;;;;6.15;100.00;100061.31;10186381;28;20073;-70
2022/02/14 02:35:25;;;;;;;6.13;2.90;;;;;;;6.14;100.00;100057.00;10177977;28;20084;-69
2022/02/14 02:40:22;;;;;;;9.18;2.90;;;;;;;6.10;100.00;100038.63;10187281;28;20111;-72
2022/02/14 02:45:18;;;;;;;10.68;3.05;;;;;;;6.10;100.00;100026.94;10176245;28;20053;-71
2022/02/14 02:50:17;;;;;;;8.65;3.40;;;;;;;6.09;100.00;100026.13;10179100;28;20054;-71
2022/02/14 02:55:14;;;;;;;12.90;3.22;;;;;;;6.05;100.00;100030.56;10188079;28;20116;-71
2022/02/14 03:00:13;;;;;;;8.15;2.60;;;;;;;6.06;100.00;100015.91;10182848;28;20531;-75
2022/02/14 03:05:09;;;;;;;7.10;3.30;;;;;;;6.03;100.00;100013.78;10180170;28;20493;-74
2022/02/14 03:10:07;;;;;;;9.38;3.15;;;;;;;6.04;100.00;99996.41;10184919;28;20070;-75
2022/02/14 03:15:03;;;;;;;9.93;3.03;;;;;;;6.06;100.00;99987.97;10186511;28;20046;-74
2022/02/14 03:20:00;;;;;;;7.18;3.55;;;;;;;6.04;100.00;99985.53;10185352;28;20065;-74
2022/02/14 03:24:56;;;;;;;6.53;2.97;;;;;;;6.07;100.00;99979.50;10176009;28;20045;-75
2022/02/14 03:29:53;;;;;;;9.35;2.63;;;;;;;6.09;100.00;99977.28;10185418;28;20088;-71
2022/02/14 03:34:49;;;;;;;6.97;3.10;;;;;;;6.13;100.00;99987.53;10182476;28;20034;-74
2022/02/14 03:39:46;;;;;;;6.82;2.70;;;;;;;6.11;100.00;99969.63;10163901;28;20095;-74
2022/02/14 03:44:42;;;;;;;6.07;2.22;;;;;;;6.14;100.00;99975.56;10175716;28;20077;-75
2022/02/14 03:49:39;;;;;;;7.40;3.20;;;;;;;6.14;100.00;99956.56;10186090;28;20139;-74
2022/02/14 03:54:35;;;;;;;7.07;3.50;;;;;;;6.13;100.00;99954.94;10192745;28;20104;-71
2022/02/14 03:59:32;;;;;;;9.20;3.00;;;;;;;6.09;100.00;99950.16;10198438;28;20180;-71
2022/02/14 04:04:29;;;;;;;9.05;2.90;;;;;;;6.09;100.00;99950.16;10186415;28;20068;-70
2022/02/14 04:09:26;;;;;;;5.60;2.45;;;;;;;6.10;100.00;99956.38;10189481;28;20069;-74
2022/02/14 04:14:23;;;;;;;9.52;3.47;;;;;;;6.08;100.00;99942.31;10170745;28;20073;-74
2022/02/14 04:19:19;;;;;;;7.82;2.75;;;;;;;6.06;100.00;99939.91;10185143;28;20100;-74
2022/02/14 04:24:16;;;;;;;7.28;2.75;;;;;;;6.07;100.00;99925.22;10189380;28;20092;-72
2022/02/14 04:29:12;;;;;;;8.50;2.40;;;;;;;6.13;100.00;99933.25;10188949;28;20213;-72
2022/02/14 04:34:09;;;;;;;7.50;2.65;;;;;;;6.18;100.00;99916.84;10186581;28;20460;-72
2022/02/14 04:39:05;;;;;;;14.65;3.92;;;;;;;6.18;100.00;99914.13;10180374;28;20106;-69
2022/02/14 04:44:03;;;;;;;8.15;2.47;;;;;;;6.22;100.00;99917.81;10189441;28;20061;-69
2022/02/14 04:48:59;;;;;;;8.50;2.95;;;;;;;6.23;100.00;99905.88;10192011;28;20058;-70
2022/02/14 04:53:56;;;;;;;8.18;2.90;;;;;;;6.23;100.00;99895.81;10189420;28;20076;-70
2022/02/14 04:58:52;;;;;;;10.98;2.85;;;;;;;6.26;100.00;99888.94;10198032;28;20499;-74
2022/02/14 05:03:49;;;;;;;9.80;3.20;;;;;;;6.31;100.00;99902.41;10177478;28;20042;-74
2022/02/14 05:08:45;;;;;;;11.32;2.80;;;;;;;6.31;100.00;99896.97;10181357;28;20037;-74
2022/02/14 05:13:44;;;;;;;8.30;2.50;;;;;;;6.31;100.00;99888.81;10179893;28;20561;-72
2022/02/14 05:18:40;;;;;;;9.07;3.10;;;;;;;6.32;100.00;99887.72;10168182;28;20708;-71
2022/02/14 05:23:37;;;;;;;5.18;2.55;;;;;;;6.32;100.00;99885.00;10174165;28;20645;-71
2022/02/14 05:28:33;;;;;;;8.13;3.10;;;;;;;6.38;100.00;99886.47;10175056;28;20133;-70
2022/02/14 05:33:30;;;;;;;8.13;3.05;;;;;;;6.40;100.00;99886.97;10170648;28;20136;-72
2022/02/14 05:38:26;;;;;;;11.38;3.28;;;;;;;6.43;100.00;99880.94;10186855;28;20182;-72
2022/02/14 05:43:23;;;;;;;10.82;3.13;;;;;;;6.49;100.00;99871.53;10183646;28;20504;-72
2022/02/14 05:48:19;;;;;;;8.35;2.90;;;;;;;6.46;100.00;99869.44;10179765;28;20045;-75
2022/02/14 05:53:15;;;;;;;8.70;2.40;;;;;;;6.52;100.00;99870.94;10155678;28;20046;-74
2022/02/14 05:58:12;;;;;;;5.43;2.85;;;;;;;6.52;100.00;99865.50;10185769;28;20159;-74
2022/02/14 06:03:08;;;;;;;8.85;2.72;;;;;;;6.59;100.00;99864.22;10189233;28;20089;-74
2022/02/14 06:08:05;;;;;;;8.02;3.03;;;;;;;6.59;100.00;99865.06;10178607;28;20054;-74
2022/02/14 06:13:02;;;;;;;8.68;3.08;;;;;;;6.56;100.00;99865.66;10181781;28;20066;-72
2022/02/14 06:18:03;;;;;;;8.00;2.90;;;;;;;6.58;100.00;99857.22;10170329;28;20078;-74
2022/02/14 06:22:59;;;;;;;9.13;2.55;;;;;;;6.53;100.00;99872.53;10182404;28;20057;-75
2022/02/14 06:27:56;;;;;;;9.27;3.30;;;;;;;6.55;100.00;99885.00;10184174;28;20476;-74
2022/02/14 06:32:53;;;;;;;8.73;2.75;;;;;;;6.55;100.00;99885.78;10192654;28;20087;-74
2022/02/14 06:37:50;;;;;;;8.52;3.80;;;;;;;6.52;100.00;99881.78;10193352;28;20077;-74
2022/02/14 06:42:48;;;;;;;10.60;3.38;;;;;;;6.56;100.00;99859.44;10163056;28;20046;-74
2022/02/14 06:47:44;;;;;;;9.05;2.75;;;;;;;6.61;100.00;99883.75;10170693;28;20133;-75
2022/02/14 06:52:41;;;;;;;8.07;2.63;;;;;;;6.58;100.00;99873.50;10152951;28;20124;-75
2022/02/14 06:57:37;;;;;;;8.82;2.13;;;;;;;6.65;100.00;99882.81;10185870;28;20606;-74
2022/02/14 07:02:34;;;;;;;10.10;4.10;;;;;;;6.69;100.00;99880.28;10192748;28;20485;-75
2022/02/14 07:07:33;;;;;;;7.15;2.45;;;;;;;6.78;100.00;99866.72;10177613;28;20517;-74
2022/02/14 07:12:29;;;;;;;8.73;2.85;;;;;;;6.82;100.00;99860.34;10192688;28;20554;-75
2022/02/14 07:17:26;;;;;;;7.07;2.40;;;;;;;6.86;100.00;99868.69;10168254;28;20074;-75
2022/02/14 07:22:22;;;;;;;11.80;2.65;;;;;;;6.91;100.00;99866.63;10152628;28;20050;-75
2022/02/14 07:27:19;;;;;;;12.57;2.60;;;;;;;6.92;100.00;99862.78;10178101;28;20136;-75
2022/02/14 07:32:16;;;;;;;16.00;2.78;;;;;;;6.98;100.00;99849.06;10192005;28;20054;-74
2022/02/14 07:37:12;;;;;;;6.65;2.58;;;;;;;7.06;100.00;99853.72;10182221;28;20380;-75
2022/02/14 07:42:09;;;;;;;10.32;2.78;;;;;;;7.10;100.00;99865.56;10191209;28;20065;-75
2022/02/14 07:47:05;;;;;;;10.20;3.03;;;;;;;7.17;100.00;99860.47;10182179;28;20089;-74
2022/02/14 07:52:03;;;;;;;9.35;2.50;;;;;;;7.23;100.00;99861.91;10191290;28;20052;-75
2022/02/14 07:57:00;;;;;;;7.10;2.60;;;;;;;7.32;100.00;99860.03;10184550;28;20076;-74
2022/02/14 08:01:56;;;;;;;10.65;2.10;;;;;;;7.42;100.00;99852.69;10226473;28;20723;-74
2022/02/14 08:06:53;;;;;;;8.98;2.80;;;;;;;7.54;100.00;99850.97;10183006;28;20081;-74
2022/02/14 08:11:49;;;;;;;8.20;2.47;;;;;;;7.69;100.00;99849.69;10174926;28;20049;-75
2022/02/14 08:16:50;;;;;;;9.13;2.25;;;;;;;7.90;100.00;99840.88;10190177;28;20050;-75
2022/02/14 08:21:46;;;;;;;9.50;2.50;;;;;;;8.02;100.00;99841.03;10198149;28;20099;-74
2022/02/14 08:26:43;;;;;;;9.23;2.42;;;;;;;8.12;100.00;99832.53;10185745;28;20061;-75
2022/02/14 08:31:39;;;;;;;8.70;2.38;;;;;;;8.27;100.00;99830.44;10196846;28;20530;-75
2022/02/14 08:36:36;;;;;;;8.23;2.33;;;;;;;8.34;100.00;99833.44;10187204;28;20077;-75
2022/02/14 08:41:32;;;;;;;9.05;2.17;;;;;;;8.47;100.00;99832.50;10196258;28;20111;-74
2022/02/14 08:46:29;;;;;;;11.50;3.10;;;;;;;8.53;100.00;99820.28;10185422;28;20076;-74
2022/02/14 08:51:25;;;;;;;10.43;1.85;;;;;;;8.62;100.00;99820.25;10195770;28;20491;-74
2022/02/14 08:56:22;;;;;;;8.35;2.47;;;;;;;8.67;100.00;99814.63;10198829;28;20561;-75
2022/02/14 09:01:18;;;;;;;9.88;2.03;;;;;;;8.72;100.00;99824.53;10197268;28;20049;-75
2022/02/14 09:06:15;;;;;;;8.23;2.10;;;;;;;8.80;100.00;99812.81;10200463;28;20049;-74
2022/02/14 09:11:12;;;;;;;8.20;2.50;;;;;;;8.86;100.00;99816.94;10195810;28;20080;-74
2022/02/14 09:16:09;;;;;;;4.82;1.67;;;;;;;8.92;100.00;99810.16;10180065;28;20679;-74
2022/02/14 09:21:06;;;;;;;5.25;1.92;;;;;;;8.96;100.00;99797.50;10196559;28;20494;-74
2022/02/14 09:26:04;;;;;;;12.18;2.53;;;;;;;9.12;100.00;99796.91;10195323;28;20073;-74
2022/02/14 09:31:01;;;;;;;8.80;2.10;;;;;;;9.33;100.00;99797.75;10196373;28;20503;-75
2022/02/14 09:36:00;;;;;;;8.55;2.53;;;;;;;9.62;100.00;99787.88;10183432;28;20551;-75
2022/02/14 09:40:59;;;;;;;11.32;2.15;;;;;;;9.98;100.00;99789.16;10156654;28;20046;-75
2022/02/14 09:45:55;;;;;;;10.00;1.92;;;;;;;10.25;100.00;99794.03;10177099;28;20050;-75
2022/02/14 09:50:52;;;;;;;9.45;2.15;;;;;;;10.31;100.00;99792.72;10156292;28;20464;-74
2022/02/14 09:55:49;;;;;;;8.73;1.98;;;;;;;10.58;100.00;99782.25;10176398;28;20676;-74
2022/02/14 10:00:45;;;;;;;7.13;2.05;;;;;;;10.49;100.00;99770.66;10233761;28;20042;-75
2022/02/14 10:05:48;;;;;;;6.50;1.85;;;;;;;10.70;100.00;99785.03;10215164;28;20046;-74
2022/02/14 10:10:46;;;;;;;5.50;1.88;;;;;;;10.90;100.00;99788.75;10171785;28;20042;-75
2022/02/14 10:15:49;;;;;;;5.38;1.95;;;;;;;11.10;100.00;99759.69;10168603;28;20112;-75
2022/02/14 10:20:46;;;;;;;5.38;1.60;;;;;;;11.23;100.00;99792.50;10193367;28;20458;-74
2022/02/14 10:25:44;;;;;;;4.95;2.15;;;;;;;11.34;100.00;99788.16;10196130;28;20049;-75
2022/02/14 10:31:01;;;;;;;5.82;1.85;;;;;;;11.34;100.00;99788.94;10192970;28;20423;-75
2022/02/14 10:35:58;;;;;;;7.70;1.83;;;;;;;11.54;100.00;99775.44;10171730;28;20695;-74
2022/02/14 10:40:54;;;;;;;6.95;1.88;;;;;;;11.65;100.00;99805.84;10163062;28;20069;-75
2022/02/14 10:45:52;;;;;;;4.30;1.35;;;;;;;11.82;100.00;99813.78;10167187;28;20446;-74
2022/02/14 10:50:57;;;;;;;7.72;1.90;;;;;;;11.79;100.00;99811.75;10192851;28;20072;-75
2022/02/14 10:55:57;;;;;;;7.43;1.70;;;;;;;11.88;100.00;99834.34;10188133;28;20089;-75
2022/02/14 11:00:57;;;;;;;6.15;1.90;;;;;;;11.87;100.00;99783.44;10195376;28;20049;-74
2022/02/14 11:05:53;;;;;;;9.60;1.95;;;;;;;11.90;100.00;99810.13;10193384;28;20037;-74
2022/02/14 11:10:52;;;;;;;5.80;2.25;;;;;;;11.83;100.00;99804.41;10186062;28;20077;-75
2022/02/14 11:15:52;;;;;;;8.00;1.50;;;;;;;12.08;100.00;99788.72;10170271;28;20053;-75
2022/02/14 11:20:50;;;;;;;7.20;1.85;;;;;;;12.17;100.00;99813.22;10152171;28;20038;-75
2022/02/14 11:25:57;;;;;;;7.25;1.80;;;;;;;12.42;100.00;99797.44;10175892;28;20107;-75
2022/02/14 11:31:14;;;;;;;6.82;2.00;;;;;;;12.61;100.00;99799.47;10191860;28;20061;-75
2022/02/14 11:36:12;;;;;;;7.90;1.73;;;;;;;12.35;100.00;99808.22;10185967;28;20057;-74
2022/02/14 11:41:36;;;;;;;5.35;1.95;;;;;;;12.24;100.00;99796.97;10182407;28;20069;-75
2022/02/14 11:46:33;;;;;;;6.82;1.73;;;;;;;12.13;100.00;99785.69;10171289;28;20104;-74
2022/02/14 11:51:36;;;;;;;6.82;1.52;;;;;;;12.09;100.00;99803.19;10172143;28;20047;-75
2022/02/14 11:56:39;;;;;;;9.43;1.85;;;;;;;12.37;100.00;99795.75;10174606;28;20507;-75
2022/02/14 12:01:51;;;;;;;5.55;1.98;;;;;;;12.62;100.00;99812.03;10198351;28;20518;-74
2022/02/14 12:07:22;;;;;;;4.07;1.40;;;;;;;12.67;100.00;99803.56;10167400;28;20539;-75
2022/02/14 12:12:54;;;;;;;4.00;1.50;;;;;;;12.77;100.00;99833.19;10149891;28;20096;-74
2022/02/14 12:23:37;;;;;;;5.07;1.58;;;;;;;12.64;100.00;99831.66;10188554;28;20133;-75
2022/02/14 12:28:36;;;;;;;5.03;1.50;;;;;;;12.42;100.00;99808.41;10165850;28;20050;-75
2022/02/14 12:33:34;;;;;;;4.72;1.50;;;;;;;12.18;100.00;99821.09;10189591;28;20671;-74
2022/02/14 12:38:33;;;;;;;4.20;1.50;;;;;;;12.08;100.00;99823.53;10189648;28;20515;-75
2022/02/14 12:43:37;;;;;;;6.20;1.63;;;;;;;11.94;100.00;99821.19;10165123;28;20105;-74
2022/02/14 12:48:40;;;;;;;5.60;1.70;;;;;;;11.87;100.00;99816.31;10161921;28;20046;-74
2022/02/14 12:53:39;;;;;;;3.90;1.58;;;;;;;11.85;100.00;99818.56;10196108;28;20070;-74
2022/02/14 12:59:04;;;;;;;4.85;1.85;;;;;;;11.77;100.00;99811.31;10192026;28;20096;-74
2022/02/14 13:04:07;;;;;;;5.60;1.60;;;;;;;11.75;100.00;99824.53;10173901;28;20501;-74
2022/02/14 13:09:32;;;;;;;7.03;1.40;;;;;;;11.73;100.00;99822.16;10160483;28;20050;-74
2022/02/14 13:14:41;;;;;;;7.85;2.35;;;;;;;11.70;100.00;99822.84;10196480;28;20042;-74
2022/02/14 13:19:37;;;;;;;8.57;1.55;;;;;;;11.68;100.00;99830.59;10188881;28;20476;-75
2022/02/14 13:24:35;;;;;;;3.92;1.50;;;;;;;11.68;100.00;99825.13;10191650;28;20100;-74
2022/02/14 13:29:40;;;;;;;4.40;1.65;;;;;;;11.61;100.00;99829.63;10200002;28;20045;-74
2022/02/14 13:34:51;;;;;;;5.85;1.73;;;;;;;11.54;100.00;99831.00;10190342;28;20089;-74
2022/02/14 13:39:48;;;;;;;5.78;1.33;;;;;;;11.49;100.00;99831.22;10196160;28;20049;-74
2022/02/14 13:44:57;;;;;;;12.18;2.45;;;;;;;11.48;100.00;99832.34;10196242;28;20624;-74
2022/02/14 13:49:57;;;;;;;5.75;1.85;;;;;;;11.28;100.00;99838.78;10197918;28;20140;-74
2022/02/14 13:55:06;;;;;;;4.78;1.90;;;;;;;11.24;100.00;99844.16;10190621;28;20137;-74
2022/02/14 14:00:03;;;;;;;4.85;2.10;;;;;;;11.01;100.00;99841.06;10224814;28;20053;-74
2022/02/14 14:05:19;;;;;;;5.40;1.73;;;;;;;10.82;100.00;99854.53;10193350;28;20741;-74
2022/02/14 14:10:15;;;;;;;5.82;2.00;;;;;;;10.75;100.00;99860.56;10191973;28;20775;-74
2022/02/14 14:15:12;;;;;;;5.05;1.98;;;;;;;10.56;100.00;99877.50;10170784;28;20138;-74
2022/02/14 14:20:09;;;;;;;6.55;2.88;;;;;;;10.32;100.00;99892.66;10181871;28;20133;-75
2022/02/14 14:25:11;;;;;;;6.25;3.30;;;;;;;10.28;100.00;99890.91;10193814;28;20056;-75
2022/02/14 14:30:08;;;;;;;7.85;2.92;;;;;;;10.37;100.00;99901.78;10199666;28;20107;-74
2022/02/14 14:35:05;;;;;;;5.95;2.85;;;;;;;10.40;100.00;99880.06;10183958;28;20116;-74
2022/02/14 14:40:03;;;;;;;6.30;2.40;;;;;;;10.47;100.00;99898.66;10183904;28;20054;-74
2022/02/14 14:45:00;;;;;;;3.63;1.80;;;;;;;10.57;100.00;99898.22;10185148;28;20112;-74
2022/02/14 14:49:58;;;;;;;4.18;2.03;;;;;;;10.60;100.00;99902.19;10191930;28;20145;-74
2022/02/14 14:54:56;;;;;;;3.95;1.90;;;;;;;10.72;100.00;99899.50;10183904;28;20113;-74
2022/02/14 14:59:53;;;;;;;7.80;2.03;;;;;;;10.79;100.00;99904.41;10217955;28;20503;-74
2022/02/14 15:04:55;;;;;;;5.20;2.33;;;;;;;10.76;100.00;99911.34;10206715;28;20529;-74
2022/02/14 15:09:53;;;;;;;5.00;1.20;;;;;;;10.76;100.00;99905.09;10159819;28;20125;-74
2022/02/14 15:14:49;;;;;;;3.97;1.40;;;;;;;10.73;100.00;99934.69;10164687;28;20046;-74
2022/02/14 15:19:46;;;;;;;3.75;1.35;;;;;;;10.83;100.00;99916.28;10195033;28;20547;-74
2022/02/14 15:24:44;;;;;;;3.58;1.58;;;;;;;10.79;100.00;99918.06;10182605;28;20046;-74
2022/02/14 15:29:40;;;;;;;3.45;1.10;;;;;;;10.79;100.00;99918.06;10198428;28;20049;-75
2022/02/14 15:34:37;;;;;;;2.45;0.90;;;;;;;10.77;100.00;99923.09;10185860;28;20076;-74
2022/02/14 15:39:33;;;;;;;2.40;0.70;;;;;;;10.62;100.00;99939.00;10154266;28;20042;-74
2022/02/14 15:44:29;;;;;;;4.13;0.73;;;;;;;10.54;100.00;99942.63;10158133;28;20076;-74
2022/02/14 15:49:29;;;;;;;3.10;0.85;;;;;;;10.47;100.00;99948.63;10154027;28;20050;-74
2022/02/14 15:54:25;;;;;;;2.78;0.90;;;;;;;10.39;100.00;99946.75;10169250;28;20081;-74
2022/02/14 15:59:23;;;;;;;2.22;0.82;;;;;;;10.28;100.00;99962.78;10204795;28;20135;-74
2022/02/14 16:04:21;;;;;;;2.10;0.80;;;;;;;10.23;100.00;99965.66;10192290;28;20041;-74
2022/02/14 16:09:18;;;;;;;1.75;0.80;;;;;;;10.21;100.00;99962.50;10155356;28;20100;-74
2022/02/14 16:14:14;;;;;;;2.83;0.70;;;;;;;10.12;100.00;99969.97;10157975;28;20524;-75
2022/02/14 16:19:11;;;;;;;4.15;1.23;;;;;;;10.08;100.00;99977.22;10179077;28;20092;-74
2022/02/14 16:24:08;;;;;;;2.80;0.95;;;;;;;10.03;100.00;99988.34;10189839;28;20049;-74
2022/02/14 16:29:05;;;;;;;4.95;1.10;;;;;;;9.97;100.00;99987.72;10201288;28;20092;-74
2022/02/14 16:34:02;;;;;;;5.50;1.10;;;;;;;9.86;100.00;99989.22;10196369;28;20051;-74
2022/02/14 16:38:58;;;;;;;6.28;1.45;;;;;;;9.81;100.00;100003.06;10160642;28;20050;-74
2022/02/14 16:43:55;;;;;;;5.53;1.10;;;;;;;9.74;100.00;100019.97;10180037;28;20108;-74
2022/02/14 16:48:51;;;;;;;5.65;1.20;;;;;;;9.64;100.00;100015.69;10160014;28;20104;-74
2022/02/14 16:53:50;;;;;;;5.65;1.30;;;;;;;9.63;100.00;100021.47;10184706;28;20054;-74
2022/02/14 16:58:47;;;;;;;4.20;1.85;;;;;;;9.58;100.00;100021.66;10204332;28;20053;-74
2022/02/14 17:03:44;;;;;;;7.07;1.63;;;;;;;9.54;100.00;100020.69;10201009;28;20049;-74
2022/02/14 17:08:40;;;;;;;2.55;1.20;;;;;;;9.48;100.00;100023.63;10178367;28;20047;-74
2022/02/14 17:13:37;;;;;;;3.40;1.25;;;;;;;9.44;100.00;100028.13;10171037;28;20056;-75
2022/02/14 17:18:33;;;;;;;5.75;1.75;;;;;;;9.35;100.00;100024.66;10159379;28;20046;-75
2022/02/14 17:23:30;;;;;;;5.30;1.30;;;;;;;9.31;100.00;100040.06;10176200;28;20046;-74
2022/02/14 17:28:26;;;;;;;5.03;1.40;;;;;;;9.25;100.00;100046.81;10167314;28;20070;-74
2022/02/14 17:33:23;;;;;;;5.65;1.45;;;;;;;9.23;100.00;100054.50;10185865;28;20128;-75
2022/02/14 17:38:19;;;;;;;6.18;1.80;;;;;;;9.16;100.00;100060.47;10196082;28;20092;-75
2022/02/14 17:43:15;;;;;;;4.53;1.50;;;;;;;9.12;100.00;100061.44;10175043;28;20173;-75
2022/02/14 17:48:12;;;;;;;3.90;1.55;;;;;;;9.11;100.00;100062.56;10159674;28;20092;-75
2022/02/14 17:53:08;;;;;;;4.80;1.50;;;;;;;9.10;100.00;100066.41;10159373;28;20214;-74
2022/02/14 17:58:05;;;;;;;3.40;1.48;;;;;;;9.08;100.00;100072.19;10206403;28;20037;-75
2022/02/14 18:03:01;;;;;;;5.40;1.48;;;;;;;9.06;100.00;100064.34;10238538;28;20149;-75
2022/02/14 18:07:58;;;;;;;6.78;1.95;;;;;;;9.00;100.00;100062.88;10182194;28;20072;-75
2022/02/14 18:12:57;;;;;;;4.85;1.63;;;;;;;8.96;100.00;100081.03;10198208;28;20053;-74
2022/02/14 18:17:53;;;;;;;5.30;1.70;;;;;;;8.96;100.00;100083.78;10158446;28;20453;-75
2022/02/14 18:22:50;;;;;;;4.20;1.60;;;;;;;8.91;100.00;100097.56;10157819;28;20439;-74
2022/02/14 18:27:46;;;;;;;9.00;2.13;;;;;;;8.88;100.00;100098.19;10174513;28;20555;-74
2022/02/14 18:32:43;;;;;;;5.65;1.73;;;;;;;8.82;100.00;100111.19;10168758;28;20125;-74
2022/02/14 18:37:41;;;;;;;3.67;1.50;;;;;;;8.84;100.00;100102.69;10158590;28;20080;-74
2022/02/14 18:42:39;;;;;;;3.78;1.50;;;;;;;8.79;100.00;100119.19;10176048;28;20053;-74
2022/02/14 18:47:37;;;;;;;4.72;1.42;;;;;;;8.79;100.00;100111.03;10162010;28;20057;-74
2022/02/14 18:52:35;;;;;;;2.55;1.00;;;;;;;8.78;100.00;100120.34;10181903;28;20511;-74
2022/02/14 18:57:36;;;;;;;7.30;1.60;;;;;;;8.75;100.00;100120.97;10199866;28;20503;-74
2022/02/14 19:02:34;;;;;;;3.20;1.30;;;;;;;8.77;100.00;100107.81;10202602;28;20475;-74
2022/02/14 19:07:39;;;;;;;4.80;1.45;;;;;;;8.77;100.00;100107.81;10171491;28;20046;-74
2022/02/14 19:12:38;;;;;;;3.45;1.17;;;;;;;8.73;100.00;100106.88;10173688;28;20504;-74
2022/02/14 19:17:35;;;;;;;5.40;1.38;;;;;;;8.75;100.00;100112.78;10190598;28;20045;-75
2022/02/14 19:22:31;;;;;;;5.40;1.23;;;;;;;8.71;100.00;100109.91;10194532;28;20053;-75
2022/02/14 19:27:28;;;;;;;3.85;1.50;;;;;;;8.71;100.00;100120.00;10170102;28;20062;-75
2022/02/14 19:32:24;;;;;;;8.02;1.60;;;;;;;8.73;100.00;100120.50;10190282;28;20054;-75
2022/02/14 19:37:25;;;;;;;4.70;1.80;;;;;;;8.71;100.00;100136.38;10184702;28;20046;-74
2022/02/14 19:42:23;;;;;;;3.28;2.05;;;;;;;8.72;100.00;100140.69;10201218;28;20168;-75
2022/02/14 19:47:20;;;;;;;5.50;1.95;;;;;;;8.67;100.00;100151.75;10168149;28;20133;-74
2022/02/14 19:52:16;;;;;;;7.30;1.73;;;;;;;8.59;100.00;100151.41;10177089;28;20074;-74
2022/02/14 19:57:13;;;;;;;4.40;1.40;;;;;;;8.49;100.00;100157.16;10181534;28;20049;-75
2022/02/14 20:02:09;;;;;;;4.30;1.80;;;;;;;8.46;100.00;100163.25;10197022;28;20487;-74
2022/02/14 20:07:06;;;;;;;5.03;1.83;;;;;;;8.34;100.00;100165.75;10171280;28;20070;-75
2022/02/14 20:12:02;;;;;;;7.28;2.35;;;;;;;8.18;100.00;100168.91;10188680;28;20080;-75
2022/02/14 20:17:02;;;;;;;3.40;1.75;;;;;;;8.22;100.00;100174.53;10168862;28;20610;-75
2022/02/14 20:21:58;;;;;;;3.92;1.73;;;;;;;8.17;100.00;100171.94;10154336;28;20085;-74
2022/02/14 20:26:55;;;;;;;4.22;1.80;;;;;;;8.09;100.00;100169.97;10163947;28;20038;-74
2022/02/14 20:31:52;;;;;;;7.13;1.83;;;;;;;8.01;100.00;100169.63;10158484;28;20069;-73
2022/02/14 20:36:50;;;;;;;5.75;1.67;;;;;;;7.95;100.00;100172.81;10188949;28;20100;-74
2022/02/14 20:41:47;;;;;;;7.88;2.00;;;;;;;7.95;100.00;100170.09;10192644;28;20050;-74
2022/02/14 20:46:52;;;;;;;7.13;2.28;;;;;;;7.89;100.00;100166.72;10161762;28;20138;-74
2022/02/14 20:51:50;;;;;;;8.38;1.98;;;;;;;7.86;100.00;100161.06;10159845;28;20125;-74
2022/02/14 20:56:46;;;;;;;4.53;1.58;;;;;;;7.77;100.00;100164.56;10167565;28;20414;-74
2022/02/14 21:01:45;;;;;;;5.15;1.65;;;;;;;7.77;100.00;100159.13;10197758;28;20042;-75
2022/02/14 21:06:41;;;;;;;8.63;2.13;;;;;;;7.72;100.00;100167.41;10177026;28;20053;-74
2022/02/14 21:11:38;;;;;;;7.95;2.05;;;;;;;7.61;100.00;100179.66;10155258;28;20038;-75
2022/02/14 21:16:34;;;;;;;7.10;1.80;;;;;;;7.64;100.00;100176.34;10174372;28;20042;-74
2022/02/14 21:21:30;;;;;;;6.10;1.90;;;;;;;7.57;100.00;100187.66;10173515;28;20054;-74
2022/02/14 21:26:27;;;;;;;4.75;1.73;;;;;;;7.53;100.00;100183.16;10179615;28;20050;-74
2022/02/14 21:31:23;;;;;;;6.05;2.08;;;;;;;7.54;100.00;100187.47;10188049;28;20050;-74
2022/02/14 21:36:20;;;;;;;8.02;2.20;;;;;;;7.56;100.00;100185.22;10190060;28;20626;-74
2022/02/14 21:41:16;;;;;;;8.82;2.13;;;;;;;7.52;100.00;100192.41;10199331;28;20042;-74
2022/02/14 21:46:13;;;;;;;9.00;2.55;;;;;;;7.49;100.00;100184.88;10180425;28;20089;-74
2022/02/14 21:51:11;;;;;;;9.25;2.88;;;;;;;7.46;100.00;100190.94;10197977;28;20069;-74
2022/02/14 21:56:07;;;;;;;10.80;1.92;;;;;;;7.40;100.00;100173.13;10174697;28;20043;-74
2022/02/14 22:01:04;;;;;;;7.55;2.58;;;;;;;7.38;100.00;100179.69;10195531;28;21215;-74
2022/02/14 22:11:16;;;;;;;8.25;2.38;;;;;;;7.40;100.00;100170.41;10196764;28;20073;-74
2022/02/14 22:16:13;;;;;;;8.02;2.00;;;;;;;7.32;100.00;100159.16;10175123;28;20579;-73
2022/02/14 22:21:09;;;;;;;7.47;2.35;;;;;;;7.25;100.00;100161.50;10188099;28;20133;-70
2022/02/14 22:26:08;;;;;;;6.38;2.08;;;;;;;7.25;100.00;100164.22;10187367;28;20050;-68
2022/02/14 22:31:05;;;;;;;6.72;2.30;;;;;;;7.23;100.00;100166.44;10179088;28;20503;-71
2022/02/14 22:36:06;;;;;;;10.70;2.60;;;;;;;7.17;100.00;100162.25;10179512;28;20069;-71
2022/02/14 22:41:02;;;;;;;6.47;2.45;;;;;;;7.12;100.00;100159.66;10194390;28;20038;-71
2022/02/14 22:45:59;;;;;;;7.93;2.63;;;;;;;7.05;100.00;100148.41;10186185;28;22103;-70
2022/02/14 22:50:55;;;;;;;8.80;3.10;;;;;;;6.95;100.00;100161.13;10196172;28;20054;-71
2022/02/14 22:55:53;;;;;;;12.38;3.20;;;;;;;6.95;100.00;100149.44;10189901;28;20168;-71
2022/02/14 23:00:57;;;;;;;10.25;3.88;;;;;;;6.95;100.00;100147.53;10199103;28;20066;-72
2022/02/14 23:05:54;;;;;;;7.45;3.20;;;;;;;6.90;100.00;100153.09;10194518;28;20511;-71